sensor_id;sensor_type;location;lat;lon;timestamp;pressure;altitude;pressure_sealevel;temperature;humidity
50774;BME280;36745;48.544;8.918;2022-10-16T00:02:34;97231.97;;;14.34;100.00
50774;BME280;36745;48.544;8.918;2022-10-16T00:05:59;97241.19;;;14.31;100.00
50774;BME280;36745;48.544;8.918;2022-10-16T00:09:21;97235.69;;;14.22;100.00
50774;BME280;36745;48.544;8.918;2022-10-16T00:12:42;97244.00;;;14.22;100.00
50774;BME280;36745;48.544;8.918;2022-10-16T00:16:04;97242.31;;;14.15;100.00
50774;BME280;36745;48.544;8.918;2022-10-16T00:19:25;97253.28;;;14.10;100.00
50774;BME280;36745;48.544;8.918;2022-10-16T00:22:47;97244.34;;;14.06;100.00
50774;BME280;36745;48.544;8.918;2022-10-16T00:26:14;97244.22;;;14.00;100.00
50774;BME280;36745;48.544;8.918;2022-10-16T00:29:36;97241.00;;;13.83;100.00
50774;BME280;36745;48.544;8.918;2022-10-16T00:32:57;97242.22;;;13.82;100.00
50774;BME280;36745;48.544;8.918;2022-10-16T00:36:21;97245.63;;;13.86;100.00
50774;BME280;36745;48.544;8.918;2022-10-16T00:39:43;97237.19;;;13.81;100.00
50774;BME280;36745;48.544;8.918;2022-10-16T00:43:32;97241.03;;;13.74;100.00
50774;BME280;36745;48.544;8.918;2022-10-16T00:46:54;97232.72;;;13.74;100.00
50774;BME280;36745;48.544;8.918;2022-10-16T00:50:20;97239.47;;;13.73;100.00
50774;BME280;36745;48.544;8.918;2022-10-16T00:53:43;97240.84;;;13.78;100.00
50774;BME280;36745;48.544;8.918;2022-10-16T00:57:06;97242.56;;;13.75;100.00
50774;BME280;36745;48.544;8.918;2022-10-16T01:00:27;97237.16;;;13.72;100.00
50774;BME280;36745;48.544;8.918;2022-10-16T01:03:49;97247.03;;;13.64;100.00
50774;BME280;36745;48.544;8.918;2022-10-16T01:07:20;97257.66;;;13.65;100.00
50774;BME280;36745;48.544;8.918;2022-10-16T01:10:57;97250.88;;;13.66;100.00
50774;BME280;36745;48.544;8.918;2022-10-16T01:14:29;97257.03;;;13.61;100.00
50774;BME280;36745;48.544;8.918;2022-10-16T01:21:28;97252.41;;;13.58;100.00
50774;BME280;36745;48.544;8.918;2022-10-16T01:24:53;97243.94;;;13.53;100.00
50774;BME280;36745;48.544;8.918;2022-10-16T01:28:22;97247.63;;;13.50;100.00
50774;BME280;36745;48.544;8.918;2022-10-16T01:31:52;97244.41;;;13.51;100.00
50774;BME280;36745;48.544;8.918;2022-10-16T01:35:22;97249.94;;;13.51;100.00
50774;BME280;36745;48.544;8.918;2022-10-16T01:38:47;97245.94;;;13.52;100.00
50774;BME280;36745;48.544;8.918;2022-10-16T01:42:19;97257.31;;;13.45;100.00
50774;BME280;36745;48.544;8.918;2022-10-16T01:45:44;97248.41;;;13.50;100.00
50774;BME280;36745;48.544;8.918;2022-10-16T01:49:06;97251.50;;;13.52;100.00
50774;BME280;36745;48.544;8.918;2022-10-16T01:52:32;97245.34;;;13.48;100.00
50774;BME280;36745;48.544;8.918;2022-10-16T01:55:55;97239.66;;;13.42;100.00
50774;BME280;36745;48.544;8.918;2022-10-16T01:59:21;97256.09;;;13.46;100.00
50774;BME280;36745;48.544;8.918;2022-10-16T02:02:47;97248.41;;;13.50;100.00
50774;BME280;36745;48.544;8.918;2022-10-16T02:06:10;97251.16;;;13.50;100.00
50774;BME280;36745;48.544;8.918;2022-10-16T02:09:33;97240.09;;;13.50;100.00
50774;BME280;36745;48.544;8.918;2022-10-16T02:13:06;97245.78;;;13.56;100.00
50774;BME280;36745;48.544;8.918;2022-10-16T02:16:41;97250.41;;;13.59;100.00
50774;BME280;36745;48.544;8.918;2022-10-16T02:20:04;97260.72;;;13.58;100.00
50774;BME280;36745;48.544;8.918;2022-10-16T02:23:50;97256.41;;;13.57;100.00
50774;BME280;36745;48.544;8.918;2022-10-16T02:27:19;97253.03;;;13.53;100.00
50774;BME280;36745;48.544;8.918;2022-10-16T02:30:55;97252.88;;;13.57;100.00
50774;BME280;36745;48.544;8.918;2022-10-16T02:34:20;97254.72;;;13.60;100.00
50774;BME280;36745;48.544;8.918;2022-10-16T02:37:44;97255.19;;;13.58;100.00
50774;BME280;36745;48.544;8.918;2022-10-16T02:41:06;97253.47;;;13.52;100.00
50774;BME280;36745;48.544;8.918;2022-10-16T02:44:27;97243.63;;;13.51;100.00
50774;BME280;36745;48.544;8.918;2022-10-16T02:47:49;97239.03;;;13.48;100.00
50774;BME280;36745;48.544;8.918;2022-10-16T02:51:10;97246.88;;;13.49;100.00
50774;BME280;36745;48.544;8.918;2022-10-16T02:54:31;97245.34;;;13.48;100.00
50774;BME280;36745;48.544;8.918;2022-10-16T02:57:52;97259.03;;;13.52;100.00
50774;BME280;36745;48.544;8.918;2022-10-16T03:01:14;97259.47;;;13.50;100.00
50774;BME280;36745;48.544;8.918;2022-10-16T03:04:37;97247.94;;;13.52;100.00
50774;BME280;36745;48.544;8.918;2022-10-16T03:07:59;97262.88;;;13.45;100.00
50774;BME280;36745;48.544;8.918;2022-10-16T03:11:21;97262.56;;;13.43;100.00
50774;BME280;36745;48.544;8.918;2022-10-16T03:14:42;97263.78;;;13.42;100.00
50774;BME280;36745;48.544;8.918;2022-10-16T03:18:04;97270.88;;;13.43;100.00
50774;BME280;36745;48.544;8.918;2022-10-16T03:21:25;97263.78;;;13.42;100.00
50774;BME280;36745;48.544;8.918;2022-10-16T03:24:46;97261.34;;;13.44;100.00
50774;BME280;36745;48.544;8.918;2022-10-16T03:28:07;97261.34;;;13.44;100.00
50774;BME280;36745;48.544;8.918;2022-10-16T03:31:29;97253.94;;;13.50;100.00
50774;BME280;36745;48.544;8.918;2022-10-16T03:34:51;97254.88;;;13.47;100.00
50774;BME280;36745;48.544;8.918;2022-10-16T03:38:14;97261.34;;;13.44;100.00
50774;BME280;36745;48.544;8.918;2022-10-16T03:41:35;97265.34;;;13.43;100.00
50774;BME280;36745;48.544;8.918;2022-10-16T03:44:56;97268.41;;;13.45;100.00
50774;BME280;36745;48.544;8.918;2022-10-16T03:48:18;97267.50;;;13.48;100.00
50774;BME280;36745;48.544;8.918;2022-10-16T03:51:39;97265.31;;;13.34;100.00
50774;BME280;36745;48.544;8.918;2022-10-16T03:55:01;97279.16;;;13.34;100.00
50774;BME280;36745;48.544;8.918;2022-10-16T03:58:22;97280.09;;;13.40;100.00
50774;BME280;36745;48.544;8.918;2022-10-16T04:01:43;97270.25;;;13.39;100.00
50774;BME280;36745;48.544;8.918;2022-10-16T04:05:05;97272.09;;;13.33;100.00
50774;BME280;36745;48.544;8.918;2022-10-16T04:08:26;97275.03;;;13.38;100.00
50774;BME280;36745;48.544;8.918;2022-10-16T04:11:47;97269.00;;;13.31;100.00
50774;BME280;36745;48.544;8.918;2022-10-16T04:15:09;97275.47;;;13.37;100.00
50774;BME280;36745;48.544;8.918;2022-10-16T04:18:31;97269.94;;;13.28;100.00
50774;BME280;36745;48.544;8.918;2022-10-16T04:21:52;97264.53;;;13.24;100.00
50774;BME280;36745;48.544;8.918;2022-10-16T04:25:13;97265.91;;;13.29;100.00
50774;BME280;36745;48.544;8.918;2022-10-16T04:28:34;97262.53;;;13.34;100.00
50774;BME280;36745;48.544;8.918;2022-10-16T04:31:56;97272.09;;;13.33;100.00
50774;BME280;36745;48.544;8.918;2022-10-16T04:35:18;97274.56;;;13.31;100.00
50774;BME280;36745;48.544;8.918;2022-10-16T04:38:40;97273.63;;;13.34;100.00
50774;BME280;36745;48.544;8.918;2022-10-16T04:42:01;97271.63;;;13.34;100.00
50774;BME280;36745;48.544;8.918;2022-10-16T04:45:23;97279.47;;;13.36;100.00
50774;BME280;36745;48.544;8.918;2022-10-16T04:48:44;97287.78;;;13.36;100.00
50774;BME280;36745;48.544;8.918;2022-10-16T04:52:06;97288.25;;;13.43;100.00
50774;BME280;36745;48.544;8.918;2022-10-16T04:55:27;97298.53;;;13.34;100.00
50774;BME280;36745;48.544;8.918;2022-10-16T04:58:48;97295.16;;;13.30;100.00
50774;BME280;36745;48.544;8.918;2022-10-16T05:02:09;97295.94;;;13.30;100.00
50774;BME280;36745;48.544;8.918;2022-10-16T05:05:31;97293.59;;;13.29;100.00
50774;BME280;36745;48.544;8.918;2022-10-16T05:08:52;97293.31;;;13.27;100.00
50774;BME280;36745;48.544;8.918;2022-10-16T05:12:13;97293.75;;;13.25;100.00
50774;BME280;36745;48.544;8.918;2022-10-16T05:15:35;97296.69;;;13.22;100.00
50774;BME280;36745;48.544;8.918;2022-10-16T05:18:56;97290.84;;;13.20;100.00
50774;BME280;36745;48.544;8.918;2022-10-16T05:22:18;97291.75;;;13.17;100.00
50774;BME280;36745;48.544;8.918;2022-10-16T05:25:39;97294.22;;;13.15;100.00
50774;BME280;36745;48.544;8.918;2022-10-16T05:29:00;97303.09;;;13.10;100.00
50774;BME280;36745;48.544;8.918;2022-10-16T05:32:21;97311.38;;;13.10;100.00
50774;BME280;36745;48.544;8.918;2022-10-16T05:35:43;97310.16;;;13.11;100.00
50774;BME280;36745;48.544;8.918;2022-10-16T05:39:04;97313.81;;;13.08;100.00
50774;BME280;36745;48.544;8.918;2022-10-16T05:42:26;97320.59;;;13.07;100.00
50774;BME280;36745;48.544;8.918;2022-10-16T05:46:01;97316.59;;;13.08;100.00
50774;BME280;36745;48.544;8.918;2022-10-16T05:49:22;97323.69;;;13.09;100.00
50774;BME280;36745;48.544;8.918;2022-10-16T05:52:43;97331.66;;;13.07;100.00
50774;BME280;36745;48.544;8.918;2022-10-16T05:56:06;97338.16;;;13.13;100.00
50774;BME280;36745;48.544;8.918;2022-10-16T05:59:27;97332.81;;;13.18;100.00
50774;BME280;36745;48.544;8.918;2022-10-16T06:02:48;97334.63;;;13.12;100.00
50774;BME280;36745;48.544;8.918;2022-10-16T06:06:15;97337.97;;;13.07;100.00
50774;BME280;36745;48.544;8.918;2022-10-16T06:09:37;97352.00;;;13.13;100.00
50774;BME280;36745;48.544;8.918;2022-10-16T06:12:58;97352.00;;;13.13;100.00
50774;BME280;36745;48.544;8.918;2022-10-16T06:16:20;97349.56;;;13.15;100.00
50774;BME280;36745;48.544;8.918;2022-10-16T06:19:41;97355.72;;;13.19;100.00
50774;BME280;36745;48.544;8.918;2022-10-16T06:23:02;97349.28;;;13.22;100.00
50774;BME280;36745;48.544;8.918;2022-10-16T06:26:27;97348.97;;;13.29;100.00
50774;BME280;36745;48.544;8.918;2022-10-16T06:29:48;97360.38;;;13.40;100.00
50774;BME280;36745;48.544;8.918;2022-10-16T06:33:10;97362.72;;;13.41;100.00
50774;BME280;36745;48.544;8.918;2022-10-16T06:36:31;97376.56;;;13.51;100.00
50774;BME280;36745;48.544;8.918;2022-10-16T06:39:53;97378.59;;;13.59;100.00
50774;BME280;36745;48.544;8.918;2022-10-16T06:43:14;97365.69;;;13.65;100.00
50774;BME280;36745;48.544;8.918;2022-10-16T06:46:35;97368.91;;;13.64;100.00
50774;BME280;36745;48.544;8.918;2022-10-16T06:49:57;97367.84;;;13.70;100.00
50774;BME280;36745;48.544;8.918;2022-10-16T06:53:18;97381.69;;;13.79;100.00
50774;BME280;36745;48.544;8.918;2022-10-16T06:56:39;97379.88;;;13.85;100.00
50774;BME280;36745;48.544;8.918;2022-10-16T07:00:00;97378.16;;;13.88;100.00
50774;BME280;36745;48.544;8.918;2022-10-16T07:03:22;97382.78;;;13.91;100.00
50774;BME280;36745;48.544;8.918;2022-10-16T07:06:43;97394.66;;;14.01;100.00
50774;BME280;36745;48.544;8.918;2022-10-16T07:10:04;97410.38;;;14.13;100.00
50774;BME280;36745;48.544;8.918;2022-10-16T07:13:26;97413.75;;;14.17;100.00
50774;BME280;36745;48.544;8.918;2022-10-16T07:16:47;97419.00;;;14.24;100.00
50774;BME280;36745;48.544;8.918;2022-10-16T07:20:09;97422.38;;;14.28;100.00
50774;BME280;36745;48.544;8.918;2022-10-16T07:23:30;97436.41;;;14.34;100.00
50774;BME280;36745;48.544;8.918;2022-10-16T07:26:51;97432.72;;;14.37;100.00
50774;BME280;36745;48.544;8.918;2022-10-16T07:30:13;97441.53;;;14.44;100.00
50774;BME280;36745;48.544;8.918;2022-10-16T07:33:35;97448.44;;;14.49;100.00
50774;BME280;36745;48.544;8.918;2022-10-16T07:36:56;97448.28;;;14.52;100.00
50774;BME280;36745;48.544;8.918;2022-10-16T07:40:17;97448.91;;;14.56;100.00
50774;BME280;36745;48.544;8.918;2022-10-16T07:43:39;97450.13;;;14.64;100.00
50774;BME280;36745;48.544;8.918;2022-10-16T07:47:00;97450.59;;;14.72;100.00
50774;BME280;36745;48.544;8.918;2022-10-16T07:50:21;97459.66;;;14.82;100.00
50774;BME280;36745;48.544;8.918;2022-10-16T07:53:43;97464.91;;;14.89;100.00
50774;BME280;36745;48.544;8.918;2022-10-16T07:57:04;97470.13;;;14.96;100.00
50774;BME280;36745;48.544;8.918;2022-10-16T08:00:25;97469.47;;;15.01;100.00
50774;BME280;36745;48.544;8.918;2022-10-16T08:03:48;97468.72;;;15.09;100.00
50774;BME280;36745;48.544;8.918;2022-10-16T08:07:10;97474.88;;;15.13;100.00
50774;BME280;36745;48.544;8.918;2022-10-16T08:10:31;97488.44;;;15.21;100.00
50774;BME280;36745;48.544;8.918;2022-10-16T08:13:53;97480.19;;;15.35;100.00
50774;BME280;36745;48.544;8.918;2022-10-16T08:17:15;97475.22;;;15.48;100.00
50774;BME280;36745;48.544;8.918;2022-10-16T08:20:36;97472.75;;;15.60;100.00
50774;BME280;36745;48.544;8.918;2022-10-16T08:23:57;97478.25;;;15.69;100.00
50774;BME280;36745;48.544;8.918;2022-10-16T08:27:19;97480.69;;;15.76;100.00
50774;BME280;36745;48.544;8.918;2022-10-16T08:30:41;97485.13;;;15.82;100.00
50774;BME280;36745;48.544;8.918;2022-10-16T08:34:02;97496.09;;;15.86;100.00
50774;BME280;36745;48.544;8.918;2022-10-16T08:37:23;97495.13;;;15.89;100.00
50774;BME280;36745;48.544;8.918;2022-10-16T08:40:44;97502.03;;;15.93;100.00
50774;BME280;36745;48.544;8.918;2022-10-16T08:51:31;97504.63;;;16.06;100.00
50774;BME280;36745;48.544;8.918;2022-10-16T08:54:55;97512.31;;;16.11;100.00
50774;BME280;36745;48.544;8.918;2022-10-16T08:58:19;97510.41;;;16.17;100.00
50774;BME280;36745;48.544;8.918;2022-10-16T09:01:44;97522.72;;;16.25;100.00
50774;BME280;36745;48.544;8.918;2022-10-16T09:16:33;97525.00;;;16.60;100.00
50774;BME280;36745;48.544;8.918;2022-10-16T09:20:36;97534.81;;;16.70;100.00
50774;BME280;36745;48.544;8.918;2022-10-16T09:23:59;97529.75;;;16.83;100.00
50774;BME280;36745;48.544;8.918;2022-10-16T09:27:21;97520.09;;;16.93;100.00
50774;BME280;36745;48.544;8.918;2022-10-16T09:30:43;97528.06;;;17.00;100.00
50774;BME280;36745;48.544;8.918;2022-10-16T09:34:06;97532.78;;;17.09;100.00
50774;BME280;36745;48.544;8.918;2022-10-16T09:37:29;97532.41;;;17.16;100.00
50774;BME280;36745;48.544;8.918;2022-10-16T09:40:52;97523.94;;;17.25;100.00
50774;BME280;36745;48.544;8.918;2022-10-16T09:44:19;97525.50;;;17.26;100.00
50774;BME280;36745;48.544;8.918;2022-10-16T09:47:43;97530.97;;;17.35;100.00
50774;BME280;36745;48.544;8.918;2022-10-16T09:51:14;97535.94;;;17.46;100.00
50774;BME280;36745;48.544;8.918;2022-10-16T09:54:37;97542.97;;;17.56;100.00
50774;BME280;36745;48.544;8.918;2022-10-16T09:57:58;97548.47;;;17.65;100.00
50774;BME280;36745;48.544;8.918;2022-10-16T10:01:21;97535.69;;;17.73;100.00
50774;BME280;36745;48.544;8.918;2022-10-16T10:04:51;97541.63;;;17.81;100.00
50774;BME280;36745;48.544;8.918;2022-10-16T10:08:17;97546.03;;;17.87;100.00
50774;BME280;36745;48.544;8.918;2022-10-16T10:11:43;97537.28;;;17.94;100.00
50774;BME280;36745;48.544;8.918;2022-10-16T10:15:11;97535.63;;;18.02;100.00
50774;BME280;36745;48.544;8.918;2022-10-16T10:18:33;97535.03;;;17.98;100.00
50774;BME280;36745;48.544;8.918;2022-10-16T10:21:55;97542.03;;;18.09;100.00
50774;BME280;36745;48.544;8.918;2022-10-16T10:25:22;97538.72;;;18.25;100.00
50774;BME280;36745;48.544;8.918;2022-10-16T10:28:51;97530.22;;;18.34;100.00
50774;BME280;36745;48.544;8.918;2022-10-16T10:32:36;97537.97;;;18.44;100.00
50774;BME280;36745;48.544;8.918;2022-10-16T10:40:43;97535.25;;;18.50;100.00
50774;BME280;36745;48.544;8.918;2022-10-16T10:44:26;97539.09;;;18.53;100.00
50774;BME280;36745;48.544;8.918;2022-10-16T10:55:40;97540.94;;;18.76;99.18
50774;BME280;36745;48.544;8.918;2022-10-16T11:03:14;97527.50;;;19.26;98.48
50774;BME280;36745;48.544;8.918;2022-10-16T11:06:48;97519.72;;;19.61;98.47
50774;BME280;36745;48.544;8.918;2022-10-16T11:10:35;97518.44;;;19.94;97.75
50774;BME280;36745;48.544;8.918;2022-10-16T11:18:06;97514.31;;;20.26;97.33
50774;BME280;36745;48.544;8.918;2022-10-16T11:21:31;97513.56;;;20.85;98.26
50774;BME280;36745;48.544;8.918;2022-10-16T11:25:15;97509.91;;;21.66;94.38
50774;BME280;36745;48.544;8.918;2022-10-16T11:28:44;97513.97;;;22.09;92.17
50774;BME280;36745;48.544;8.918;2022-10-16T11:32:35;97501.97;;;21.75;88.02
50774;BME280;36745;48.544;8.918;2022-10-16T11:36:22;97501.47;;;21.77;85.31
50774;BME280;36745;48.544;8.918;2022-10-16T11:39:45;97507.09;;;21.83;83.58
50774;BME280;36745;48.544;8.918;2022-10-16T11:43:15;97501.75;;;21.90;83.02
50774;BME280;36745;48.544;8.918;2022-10-16T11:46:40;97502.75;;;22.09;82.41
50774;BME280;36745;48.544;8.918;2022-10-16T11:53:47;97490.38;;;22.46;81.98
50774;BME280;36745;48.544;8.918;2022-10-16T11:57:17;97493.28;;;22.24;78.30
50774;BME280;36745;48.544;8.918;2022-10-16T12:00:47;97485.91;;;21.98;76.81
50774;BME280;36745;48.544;8.918;2022-10-16T12:04:36;97495.09;;;21.82;77.51
50774;BME280;36745;48.544;8.918;2022-10-16T12:08:11;97496.91;;;21.80;78.77
50774;BME280;36745;48.544;8.918;2022-10-16T12:11:38;97497.91;;;21.71;77.60
50774;BME280;36745;48.544;8.918;2022-10-16T12:18:42;97500.19;;;21.89;75.36
50774;BME280;36745;48.544;8.918;2022-10-16T12:22:03;97500.47;;;21.63;74.59
50774;BME280;36745;48.544;8.918;2022-10-16T12:25:30;97497.91;;;21.60;74.70
50774;BME280;36745;48.544;8.918;2022-10-16T12:28:53;97494.34;;;21.65;75.07
50774;BME280;36745;48.544;8.918;2022-10-16T12:32:40;97495.09;;;21.82;74.90
50774;BME280;36745;48.544;8.918;2022-10-16T12:36:06;97494.88;;;21.97;74.66
50774;BME280;36745;48.544;8.918;2022-10-16T12:39:30;97486.69;;;22.04;74.10
50774;BME280;36745;48.544;8.918;2022-10-16T12:42:52;97483.06;;;22.26;73.76
50774;BME280;36745;48.544;8.918;2022-10-16T12:49:47;97475.22;;;22.77;72.99
50774;BME280;36745;48.544;8.918;2022-10-16T12:53:22;97480.09;;;22.76;71.94
50774;BME280;36745;48.544;8.918;2022-10-16T13:08:09;97484.66;;;22.68;71.85
50774;BME280;36745;48.544;8.918;2022-10-16T13:15:47;97491.13;;;22.52;69.89
50774;BME280;36745;48.544;8.918;2022-10-16T13:19:38;97495.81;;;22.33;69.33
50774;BME280;36745;48.544;8.918;2022-10-16T13:26:53;97495.25;;;22.45;70.46
50774;BME280;36745;48.544;8.918;2022-10-16T13:31:00;97498.06;;;22.51;70.56
50774;BME280;36745;48.544;8.918;2022-10-16T13:34:01;97496.50;;;22.50;69.84
50774;BME280;36745;48.544;8.918;2022-10-16T13:37:24;97499.56;;;22.46;69.98
50774;BME280;36745;48.544;8.918;2022-10-16T13:40:53;97494.22;;;22.43;69.26
50774;BME280;36745;48.544;8.918;2022-10-16T13:44:18;97489.13;;;22.36;69.57
50774;BME280;36745;48.544;8.918;2022-10-16T13:47:40;97494.53;;;22.34;69.80
50774;BME280;36745;48.544;8.918;2022-10-16T13:54:28;97490.91;;;22.50;69.61
50774;BME280;36745;48.544;8.918;2022-10-16T13:57:52;97496.00;;;22.46;69.38
50774;BME280;36745;48.544;8.918;2022-10-16T14:01:23;97500.88;;;22.45;69.45
50774;BME280;36745;48.544;8.918;2022-10-16T14:04:46;97503.16;;;22.47;69.28
50774;BME280;36745;48.544;8.918;2022-10-16T14:08:11;97500.13;;;22.45;69.37
50774;BME280;36745;48.544;8.918;2022-10-16T14:11:33;97502.16;;;22.44;69.02
50774;BME280;36745;48.544;8.918;2022-10-16T14:14:59;97510.81;;;22.41;68.86
50774;BME280;36745;48.544;8.918;2022-10-16T14:18:23;97508.78;;;22.41;68.88
50774;BME280;36745;48.544;8.918;2022-10-16T14:21:45;97501.09;;;22.47;68.68
50774;BME280;36745;48.544;8.918;2022-10-16T14:28:41;97502.91;;;22.50;68.50
50774;BME280;36745;48.544;8.918;2022-10-16T14:32:24;97510.34;;;22.37;67.82
50774;BME280;36745;48.544;8.918;2022-10-16T14:35:45;97512.19;;;22.23;67.38
50774;BME280;36745;48.544;8.918;2022-10-16T14:39:18;97521.63;;;22.14;67.48
50774;BME280;36745;48.544;8.918;2022-10-16T14:42:43;97519.34;;;22.07;67.53
50774;BME280;36745;48.544;8.918;2022-10-16T14:46:13;97518.06;;;22.03;67.77
50774;BME280;36745;48.544;8.918;2022-10-16T14:49:37;97525.75;;;21.97;67.28
50774;BME280;36745;48.544;8.918;2022-10-16T14:52:59;97528.28;;;21.89;67.60
50774;BME280;36745;48.544;8.918;2022-10-16T14:56:32;97523.16;;;21.82;67.53
50774;BME280;36745;48.544;8.918;2022-10-16T14:59:55;97521.13;;;21.77;67.63
50774;BME280;36745;48.544;8.918;2022-10-16T15:03:17;97523.16;;;21.71;67.36
50774;BME280;36745;48.544;8.918;2022-10-16T15:06:38;97522.41;;;21.65;67.42
50774;BME280;36745;48.544;8.918;2022-10-16T15:09:59;97523.16;;;21.60;67.71
50774;BME280;36745;48.544;8.918;2022-10-16T15:13:20;97523.16;;;21.54;67.60
50774;BME280;36745;48.544;8.918;2022-10-16T15:16:42;97517.53;;;21.49;67.50
50774;BME280;36745;48.544;8.918;2022-10-16T15:20:03;97533.34;;;21.41;67.62
50774;BME280;36745;48.544;8.918;2022-10-16T15:23:25;97519.59;;;21.31;67.58
50774;BME280;36745;48.544;8.918;2022-10-16T15:26:46;97522.88;;;21.24;67.90
50774;BME280;36745;48.544;8.918;2022-10-16T15:30:10;97516.50;;;21.18;67.67
50774;BME280;36745;48.544;8.918;2022-10-16T15:33:32;97522.56;;;21.11;67.62
50774;BME280;36745;48.544;8.918;2022-10-16T15:36:55;97521.53;;;21.03;67.21
50774;BME280;36745;48.544;8.918;2022-10-16T15:40:25;97521.25;;;20.95;67.46
50774;BME280;36745;48.544;8.918;2022-10-16T15:43:50;97519.44;;;20.87;67.65
50774;BME280;36745;48.544;8.918;2022-10-16T15:47:12;97524.00;;;20.79;68.12
50774;BME280;36745;48.544;8.918;2022-10-16T15:50:33;97534.16;;;20.71;68.34
50774;BME280;36745;48.544;8.918;2022-10-16T15:53:58;97534.63;;;20.64;68.41
50774;BME280;36745;48.544;8.918;2022-10-16T15:57:22;97547.56;;;20.50;68.71
50774;BME280;36745;48.544;8.918;2022-10-16T16:00:44;97540.09;;;20.36;68.98
50774;BME280;36745;48.544;8.918;2022-10-16T16:04:05;97540.53;;;20.23;69.82
50774;BME280;36745;48.544;8.918;2022-10-16T16:07:27;97545.31;;;20.17;69.87
50774;BME280;36745;48.544;8.918;2022-10-16T16:11:18;97553.63;;;20.06;70.85
50774;BME280;36745;48.544;8.918;2022-10-16T16:14:39;97544.16;;;19.98;70.63
50774;BME280;36745;48.544;8.918;2022-10-16T16:18:01;97543.31;;;19.86;71.23
50774;BME280;36745;48.544;8.918;2022-10-16T16:21:23;97551.63;;;19.75;71.24
50774;BME280;36745;48.544;8.918;2022-10-16T16:24:44;97549.56;;;19.70;72.28
50774;BME280;36745;48.544;8.918;2022-10-16T16:28:05;97551.75;;;19.60;72.93
50774;BME280;36745;48.544;8.918;2022-10-16T16:31:29;97552.63;;;19.46;73.42
50774;BME280;36745;48.544;8.918;2022-10-16T16:34:56;97564.22;;;19.39;73.95
50774;BME280;36745;48.544;8.918;2022-10-16T16:38:18;97571.25;;;19.29;74.26
50774;BME280;36745;48.544;8.918;2022-10-16T16:41:39;97560.72;;;19.18;74.23
50774;BME280;36745;48.544;8.918;2022-10-16T16:45:04;97565.88;;;19.00;74.63
50774;BME280;36745;48.544;8.918;2022-10-16T16:48:25;97568.78;;;18.91;75.01
50774;BME280;36745;48.544;8.918;2022-10-16T16:51:47;97554.97;;;18.81;75.78
50774;BME280;36745;48.544;8.918;2022-10-16T16:55:08;97570.81;;;18.70;76.67
50774;BME280;36745;48.544;8.918;2022-10-16T16:58:30;97568.66;;;18.59;77.17
50774;BME280;36745;48.544;8.918;2022-10-16T17:01:51;97570.50;;;18.48;77.85
50774;BME280;36745;48.544;8.918;2022-10-16T17:05:12;97573.63;;;18.35;78.20
50774;BME280;36745;48.544;8.918;2022-10-16T17:08:40;97584.81;;;18.35;79.14
50774;BME280;36745;48.544;8.918;2022-10-16T17:12:02;97584.22;;;18.31;79.71
50774;BME280;36745;48.544;8.918;2022-10-16T17:15:23;97603.66;;;18.25;80.00
50774;BME280;36745;48.544;8.918;2022-10-16T17:18:44;97604.28;;;18.15;80.20
50774;BME280;36745;48.544;8.918;2022-10-16T17:22:05;97603.16;;;18.07;80.66
50774;BME280;36745;48.544;8.918;2022-10-16T17:25:27;97611.91;;;17.99;80.59
50774;BME280;36745;48.544;8.918;2022-10-16T17:28:52;97613.56;;;17.91;81.06
50774;BME280;36745;48.544;8.918;2022-10-16T17:32:14;97616.25;;;17.86;81.25
50774;BME280;36745;48.544;8.918;2022-10-16T17:35:45;97615.88;;;17.78;81.82
50774;BME280;36745;48.544;8.918;2022-10-16T17:39:07;97625.28;;;17.66;82.42
50774;BME280;36745;48.544;8.918;2022-10-16T17:42:29;97624.28;;;17.54;83.13
50774;BME280;36745;48.544;8.918;2022-10-16T17:45:50;97629.47;;;17.47;83.48
50774;BME280;36745;48.544;8.918;2022-10-16T17:49:11;97650.00;;;17.35;82.94
50774;BME280;36745;48.544;8.918;2022-10-16T17:52:33;97649.53;;;17.22;82.66
50774;BME280;36745;48.544;8.918;2022-10-16T17:55:54;97650.53;;;17.09;83.18
50774;BME280;36745;48.544;8.918;2022-10-16T17:59:19;97654.63;;;16.99;83.32
50774;BME280;36745;48.544;8.918;2022-10-16T18:02:42;97667.13;;;16.80;84.60
50774;BME280;36745;48.544;8.918;2022-10-16T18:06:04;97658.53;;;16.69;85.19
50774;BME280;36745;48.544;8.918;2022-10-16T18:09:25;97665.81;;;16.57;85.49
50774;BME280;36745;48.544;8.918;2022-10-16T18:12:54;97663.09;;;16.48;85.50
50774;BME280;36745;48.544;8.918;2022-10-16T18:16:16;97663.63;;;16.37;86.04
50774;BME280;36745;48.544;8.918;2022-10-16T18:19:38;97673.56;;;16.29;86.21
50774;BME280;36745;48.544;8.918;2022-10-16T18:22:59;97678.84;;;16.18;86.61
50774;BME280;36745;48.544;8.918;2022-10-16T18:26:21;97679.81;;;16.06;87.13
50774;BME280;36745;48.544;8.918;2022-10-16T18:29:42;97690.66;;;15.95;87.41
50774;BME280;36745;48.544;8.918;2022-10-16T18:33:03;97688.03;;;15.82;87.55
50774;BME280;36745;48.544;8.918;2022-10-16T18:36:27;97691.91;;;15.85;87.04
50774;BME280;36745;48.544;8.918;2022-10-16T18:39:52;97695.34;;;15.71;87.53
50774;BME280;36745;48.544;8.918;2022-10-16T18:43:14;97696.88;;;15.63;87.47
50774;BME280;36745;48.544;8.918;2022-10-16T18:46:36;97698.44;;;15.55;87.56
50774;BME280;36745;48.544;8.918;2022-10-16T18:49:57;97703.69;;;15.43;88.93
50774;BME280;36745;48.544;8.918;2022-10-16T18:53:19;97704.59;;;15.40;89.38
50774;BME280;36745;48.544;8.918;2022-10-16T18:56:40;97703.38;;;15.32;89.57
50774;BME280;36745;48.544;8.918;2022-10-16T19:00:02;97705.81;;;15.30;89.22
50774;BME280;36745;48.544;8.918;2022-10-16T19:03:23;97709.66;;;15.24;88.91
50774;BME280;36745;48.544;8.918;2022-10-16T19:06:46;97715.06;;;15.09;89.19
50774;BME280;36745;48.544;8.918;2022-10-16T19:10:12;97717.66;;;14.94;89.32
50774;BME280;36745;48.544;8.918;2022-10-16T19:13:33;97726.78;;;14.95;89.15
50774;BME280;36745;48.544;8.918;2022-10-16T19:16:55;97726.44;;;14.93;89.43